Time;durP1;ratioP1;P1;durP2;ratioP2;P2;SDS_P1;SDS_P2;PMS_P1;PMS_P2;Temp;Humidity;BMP_temperature;BMP_pressure;BME280_temperature;BME280_humidity;BME280_pressure;Samples;Min_cycle;Max_cycle;Signal;HPM_P1;HPM_P2
2022/01/02 00:01:33;;;;;;;2.10;1.80;;;;;;;4.07;87.58;99959.48;1772086;79;21466;-54
2022/01/02 00:04:41;;;;;;;1.47;1.35;;;;;;;4.05;87.40;99966.02;1768998;80;21832;-53
2022/01/02 00:08:09;;;;;;;2.65;1.87;;;;;;;4.03;87.23;99976.13;1768817;80;21336;-53
2022/01/02 00:11:15;;;;;;;1.92;1.50;;;;;;;4.02;87.21;99984.78;1769030;80;21371;-52
2022/01/02 00:14:22;;;;;;;1.87;1.60;;;;;;;4.01;86.99;99993.88;1770839;79;21197;-53
2022/01/02 00:17:29;;;;;;;2.25;1.42;;;;;;;4.02;86.84;99995.61;1767673;80;21198;-53
2022/01/02 00:20:46;;;;;;;2.37;1.75;;;;;;;4.02;86.70;99998.32;1745453;80;21354;-54
2022/01/02 00:23:58;;;;;;;2.17;1.50;;;;;;;4.01;86.24;99990.34;1778330;80;21355;-53
2022/01/02 00:26:56;;;;;;;1.65;1.30;;;;;;;3.97;85.85;99999.24;1778752;80;21271;-53
2022/01/02 00:30:03;;;;;;;1.80;1.27;;;;;;;3.93;85.70;99998.33;1778523;80;21358;-53
2022/01/02 00:33:10;;;;;;;1.30;1.20;;;;;;;3.87;85.40;100029.52;1762450;80;21327;-53
2022/01/02 00:36:18;;;;;;;1.22;1.10;;;;;;;3.85;85.05;100017.13;1778465;80;21351;-53
2022/01/02 00:39:24;;;;;;;1.30;1.20;;;;;;;3.82;85.05;100022.31;1778908;80;21346;-53
2022/01/02 00:42:42;;;;;;;1.30;1.20;;;;;;;3.83;84.87;100014.57;1770541;81;21200;-54
2022/01/02 00:45:53;;;;;;;2.70;1.30;;;;;;;3.84;84.73;100020.33;1770590;81;21216;-54
2022/01/02 00:48:59;;;;;;;1.52;1.40;;;;;;;3.84;84.68;100018.97;1770524;81;21177;-54
2022/01/02 00:52:16;;;;;;;1.40;1.20;;;;;;;3.84;84.43;100041.98;1774342;80;21375;-53
2022/01/02 00:55:30;;;;;;;1.57;1.10;;;;;;;3.83;84.01;100052.47;1767862;80;21194;-53
2022/01/02 00:58:50;;;;;;;1.20;1.10;;;;;;;3.77;84.20;100022.40;1756082;80;21375;-53
2022/01/02 01:01:58;;;;;;;1.52;1.20;;;;;;;3.72;84.09;100051.25;1731691;82;21355;-54
2022/01/02 01:05:04;;;;;;;5.12;3.08;;;;;;;3.67;83.45;100059.42;1759777;81;21236;-54
2022/01/02 01:08:14;;;;;;;1.12;1.02;;;;;;;3.64;83.39;100061.92;1779137;79;21311;-54
2022/01/02 01:11:23;;;;;;;1.55;1.10;;;;;;;3.60;83.31;100082.12;1772373;81;21275;-54
2022/01/02 01:14:28;;;;;;;0.80;0.80;;;;;;;3.56;83.11;100079.34;1777986;80;21389;-55
2022/01/02 01:17:36;;;;;;;1.02;0.98;;;;;;;3.48;82.83;100104.02;1768024;80;21336;-54
2022/01/02 01:20:50;;;;;;;0.80;0.80;;;;;;;3.38;82.89;100089.11;1785429;79;21169;-54
2022/01/02 01:23:56;;;;;;;0.90;0.80;;;;;;;3.36;82.99;100087.06;1791917;79;21382;-55
2022/01/02 01:27:03;;;;;;;1.10;0.90;;;;;;;3.35;83.09;100103.40;1793999;79;21351;-54
2022/01/02 01:30:14;;;;;;;1.10;0.90;;;;;;;3.31;83.09;100123.13;1782755;79;21319;-55
2022/01/02 01:33:21;;;;;;;5.20;2.62;;;;;;;3.29;82.94;100118.83;1800835;79;21343;-54
2022/01/02 01:36:26;;;;;;;3.87;2.22;;;;;;;3.27;82.73;100120.32;1800810;79;21405;-55
2022/01/02 01:39:32;;;;;;;3.92;2.05;;;;;;;3.24;82.43;100103.50;1800521;79;21883;-55
2022/01/02 01:42:42;;;;;;;1.10;1.00;;;;;;;3.22;82.45;100143.38;1777368;79;21401;-55
2022/01/02 01:45:48;;;;;;;1.37;0.90;;;;;;;3.22;82.42;100136.09;1764489;80;21404;-54
2022/01/02 01:49:00;;;;;;;0.80;0.80;;;;;;;3.21;82.26;100157.86;1708699;83;21327;-54
2022/01/02 01:52:05;;;;;;;1.07;0.98;;;;;;;3.17;81.64;100149.19;1773343;81;21351;-54
2022/01/02 01:55:11;;;;;;;1.10;1.00;;;;;;;3.14;81.45;100184.59;1773916;81;21344;-54
2022/01/02 01:58:18;;;;;;;0.93;0.90;;;;;;;3.11;81.22;100147.52;1754937;80;21385;-53
2022/01/02 02:01:23;;;;;;;1.00;0.90;;;;;;;3.04;81.07;100162.06;1732348;82;21362;-55
2022/01/02 02:04:32;;;;;;;1.00;0.90;;;;;;;3.00;81.03;100167.36;1752691;81;21204;-55
2022/01/02 02:07:42;;;;;;;1.02;0.93;;;;;;;2.97;80.97;100168.50;1748403;82;21216;-55
2022/01/02 02:10:56;;;;;;;1.30;0.90;;;;;;;2.97;80.92;100182.50;1776323;80;21225;-56
2022/01/02 02:14:04;;;;;;;2.25;1.00;;;;;;;2.98;80.77;100194.53;1769452;81;21271;-55
2022/01/02 02:17:13;;;;;;;1.45;1.02;;;;;;;3.00;80.54;100180.39;1737616;82;21272;-55
2022/01/02 02:20:28;;;;;;;0.95;0.95;;;;;;;2.97;80.30;100204.99;1742525;81;21244;-57
2022/01/02 02:23:35;;;;;;;0.70;0.70;;;;;;;2.99;80.26;100206.22;1753468;80;21363;-58
2022/01/02 02:26:42;;;;;;;1.90;1.00;;;;;;;2.97;79.96;100241.98;1735539;82;21464;-54
2022/01/02 02:29:47;;;;;;;1.10;0.90;;;;;;;2.94;79.66;100247.65;1801099;79;21838;-54
2022/01/02 02:32:56;;;;;;;0.80;0.80;;;;;;;2.92;79.33;100226.64;1801599;79;21885;-55
2022/01/02 02:36:02;;;;;;;0.80;0.80;;;;;;;2.90;78.99;100232.17;1789751;78;21894;-54
2022/01/02 02:39:11;;;;;;;0.80;0.80;;;;;;;2.89;78.88;100239.94;1789327;79;21349;-55
2022/01/02 02:42:42;;;;;;;0.90;0.90;;;;;;;2.88;78.87;100222.50;1793323;79;21353;-54
2022/01/02 02:49:05;;;;;;;0.95;0.80;;;;;;;2.82;79.11;100252.77;1800645;79;21955;-54
2022/01/02 02:52:29;;;;;;;1.00;1.00;;;;;;;2.76;78.71;100258.17;1798958;79;21435;-54
2022/01/02 02:55:26;;;;;;;1.02;0.80;;;;;;;2.71;78.02;100292.00;1792948;78;21461;-54
2022/01/02 03:01:39;;;;;;;0.72;0.72;;;;;;;2.63;78.02;100285.02;1781062;79;21418;-57
2022/01/02 03:04:47;;;;;;;1.15;0.95;;;;;;;2.60;78.09;100309.59;1731933;82;21860;-57
2022/01/02 03:07:55;;;;;;;0.85;0.85;;;;;;;2.55;78.39;100296.95;1818008;78;21197;-56
2022/01/02 03:11:03;;;;;;;0.95;0.93;;;;;;;2.51;78.71;100304.94;1814397;79;21389;-56
2022/01/02 03:14:10;;;;;;;0.70;0.70;;;;;;;2.42;79.01;100321.91;1770768;79;21212;-56
2022/01/02 03:17:15;;;;;;;0.80;0.80;;;;;;;2.40;79.28;100327.44;1803836;79;21405;-56
2022/01/02 03:20:24;;;;;;;1.12;1.05;;;;;;;2.39;79.69;100345.13;1782031;79;21552;-56
2022/01/02 03:23:29;;;;;;;0.80;0.80;;;;;;;2.32;80.56;100329.91;1743016;81;21247;-55
2022/01/02 03:26:37;;;;;;;1.10;1.00;;;;;;;2.17;86.26;100368.94;1725474;82;21195;-55
2022/01/02 03:29:44;;;;;;;0.88;0.88;;;;;;;2.09;94.50;100364.67;1773713;80;21895;-56
2022/01/02 03:32:51;;;;;;;1.20;1.00;;;;;;;1.98;96.90;100367.85;1768826;81;21935;-54
2022/01/02 03:35:58;;;;;;;1.60;1.10;;;;;;;1.91;97.55;100358.52;1735115;82;21280;-55
2022/01/02 03:39:07;;;;;;;1.27;1.17;;;;;;;1.90;98.38;100383.80;1727488;82;21853;-54
2022/01/02 03:42:15;;;;;;;1.85;1.17;;;;;;;1.90;98.64;100381.09;1721529;83;21250;-53
2022/01/02 03:45:20;;;;;;;1.00;0.90;;;;;;;1.88;98.86;100389.31;1695830;84;21436;-54
2022/01/02 03:48:29;;;;;;;1.72;0.95;;;;;;;1.85;98.54;100399.48;1669213;84;21247;-55
2022/01/02 03:51:39;;;;;;;1.05;0.95;;;;;;;1.83;97.82;100394.20;1695514;84;21401;-54
2022/01/02 03:54:46;;;;;;;0.90;0.90;;;;;;;1.84;96.90;100401.83;1741467;80;21197;-55
2022/01/02 03:57:53;;;;;;;1.07;0.98;;;;;;;1.85;95.02;100433.22;1747138;81;21359;-56
2022/01/02 04:01:00;;;;;;;0.80;0.80;;;;;;;1.84;93.24;100405.36;1774981;80;21343;-56
2022/01/02 04:04:06;;;;;;;1.02;0.93;;;;;;;1.86;91.87;100418.73;1746029;81;21169;-56
2022/01/02 04:07:12;;;;;;;2.72;1.10;;;;;;;1.90;90.87;100421.58;1756046;80;21244;-55
2022/01/02 04:10:22;;;;;;;2.35;0.82;;;;;;;1.93;89.01;100434.34;1738694;81;21370;-55
2022/01/02 04:13:27;;;;;;;1.10;1.00;;;;;;;1.95;87.10;100429.66;1757603;80;21351;-54
2022/01/02 04:16:33;;;;;;;0.95;0.90;;;;;;;1.94;84.65;100440.59;1730534;82;21410;-55
2022/01/02 04:19:39;;;;;;;1.22;1.07;;;;;;;1.93;83.49;100450.55;1741561;80;21331;-56
2022/01/02 04:22:45;;;;;;;1.25;1.02;;;;;;;1.91;81.87;100468.69;1767465;79;21226;-55
2022/01/02 04:25:52;;;;;;;1.40;1.00;;;;;;;1.88;80.08;100460.83;1789325;80;21247;-56
2022/01/02 04:28:57;;;;;;;1.00;1.00;;;;;;;1.90;79.10;100468.33;1770805;79;21199;-55
2022/01/02 04:32:04;;;;;;;1.05;0.98;;;;;;;1.92;77.15;100481.19;1789990;79;21396;-55
2022/01/02 04:35:12;;;;;;;0.82;0.82;;;;;;;1.91;75.11;100509.66;1789199;80;21357;-56
2022/01/02 04:38:18;;;;;;;0.85;0.80;;;;;;;1.89;73.97;100508.42;1789288;80;21818;-57
2022/01/02 04:41:25;;;;;;;1.10;1.00;;;;;;;1.86;72.91;100532.08;1789342;80;21357;-57
2022/01/02 04:44:31;;;;;;;1.07;0.98;;;;;;;1.80;71.84;100512.31;1790007;79;21400;-60
2022/01/02 04:47:40;;;;;;;1.85;0.90;;;;;;;1.78;71.03;100546.64;1789831;79;21412;-58
2022/01/02 04:50:46;;;;;;;1.07;0.80;;;;;;;1.74;69.95;100529.85;1789270;80;21376;-57
2022/01/02 04:53:54;;;;;;;1.00;0.90;;;;;;;1.68;68.09;100531.67;1790735;79;21179;-57
2022/01/02 04:56:59;;;;;;;0.70;0.70;;;;;;;1.64;66.92;100573.81;1789309;80;21412;-58
2022/01/02 05:00:05;;;;;;;1.37;1.02;;;;;;;1.61;66.34;100538.97;1789305;80;21341;-56
2022/01/02 05:03:14;;;;;;;1.25;1.10;;;;;;;1.55;65.00;100555.98;1789469;80;21866;-58
2022/01/02 05:06:23;;;;;;;1.77;1.30;;;;;;;1.55;64.26;100588.36;1789321;80;21348;-58
2022/01/02 05:09:30;;;;;;;1.37;0.90;;;;;;;1.54;63.65;100565.06;1789396;80;21349;-58
2022/01/02 05:12:35;;;;;;;1.17;1.00;;;;;;;1.54;63.61;100577.68;1792802;78;21180;-61
2022/01/02 05:15:40;;;;;;;1.07;1.07;;;;;;;1.50;62.52;100597.78;1789457;80;21352;-58
2022/01/02 05:18:49;;;;;;;0.90;0.90;;;;;;;1.50;62.45;100613.48;1790010;79;21349;-58
2022/01/02 05:21:57;;;;;;;0.95;0.95;;;;;;;1.45;61.42;100596.78;1789209;80;21195;-57
2022/01/02 05:25:03;;;;;;;1.12;1.02;;;;;;;1.41;61.34;100602.00;1797722;79;21411;-59
2022/01/02 05:28:11;;;;;;;1.00;0.90;;;;;;;1.41;61.62;100614.66;1800505;79;21619;-59
2022/01/02 05:31:17;;;;;;;1.00;1.00;;;;;;;1.39;61.57;100646.25;1773987;79;21281;-58
2022/01/02 05:34:23;;;;;;;1.05;1.00;;;;;;;1.40;61.82;100635.83;1768622;81;21261;-59
2022/01/02 05:37:30;;;;;;;6.42;3.05;;;;;;;1.41;62.58;100640.27;1741842;81;21257;-59
2022/01/02 05:40:38;;;;;;;4.67;2.62;;;;;;;1.38;63.36;100653.47;1768995;81;21202;-59
2022/01/02 05:43:47;;;;;;;3.05;1.67;;;;;;;1.36;64.17;100661.31;1742531;81;21210;-59
2022/01/02 05:46:53;;;;;;;1.70;1.32;;;;;;;1.36;64.06;100690.97;1769006;81;21443;-59
2022/01/02 05:49:59;;;;;;;1.90;1.22;;;;;;;1.28;62.81;100690.19;1713610;82;21240;-58
2022/01/02 05:53:05;;;;;;;2.02;1.55;;;;;;;1.20;62.50;100696.61;1752636;81;21613;-58
2022/01/02 05:56:12;;;;;;;1.37;1.20;;;;;;;1.11;62.20;100712.06;1725329;83;21236;-57
2022/01/02 05:59:17;;;;;;;1.25;1.12;;;;;;;1.02;62.53;100689.81;1735520;81;21867;-58
2022/01/02 06:02:23;;;;;;;1.80;1.32;;;;;;;0.96;62.94;100688.91;1750136;80;21755;-58
2022/01/02 06:05:29;;;;;;;1.52;1.22;;;;;;;0.97;63.32;100712.17;1751550;82;21210;-58
2022/01/02 06:08:37;;;;;;;1.22;1.12;;;;;;;0.93;63.02;100726.85;1751791;82;21696;-57
2022/01/02 06:11:43;;;;;;;2.15;1.20;;;;;;;0.89;62.36;100710.50;1752372;82;21353;-58
2022/01/02 06:14:50;;;;;;;1.85;1.30;;;;;;;0.85;62.26;100716.22;1752275;82;21816;-59
2022/01/02 06:17:58;;;;;;;1.67;1.42;;;;;;;0.82;61.67;100725.39;1752290;80;21846;-58
2022/01/02 06:21:06;;;;;;;1.98;1.50;;;;;;;0.71;60.93;100719.88;1752191;82;21357;-57
2022/01/02 06:24:12;;;;;;;1.30;1.02;;;;;;;0.67;60.76;100710.27;1751964;82;21329;-58
2022/01/02 06:27:17;;;;;;;2.75;1.40;;;;;;;0.67;60.64;100725.55;1730604;82;21799;-57
2022/01/02 06:30:24;;;;;;;1.30;1.20;;;;;;;0.66;60.59;100731.45;1751580;82;21215;-57
2022/01/02 06:33:31;;;;;;;1.37;1.25;;;;;;;0.65;60.40;100733.73;1752275;81;21337;-58
2022/01/02 06:36:37;;;;;;;1.57;1.12;;;;;;;0.61;60.37;100740.79;1752260;81;21959;-57
2022/01/02 06:39:45;;;;;;;1.75;1.20;;;;;;;0.57;60.72;100763.02;1742172;81;21176;-57
2022/01/02 06:42:51;;;;;;;1.72;1.50;;;;;;;0.54;60.98;100800.94;1760808;81;21171;-57
2022/01/02 06:45:56;;;;;;;1.37;1.27;;;;;;;0.51;61.11;100764.79;1737221;82;21360;-57
2022/01/02 06:49:03;;;;;;;1.72;1.37;;;;;;;0.55;61.66;100794.61;1752564;80;21777;-58
2022/01/02 06:52:10;;;;;;;1.60;1.40;;;;;;;0.57;61.54;100763.53;1752129;81;21376;-56
2022/01/02 06:55:14;;;;;;;1.80;1.47;;;;;;;0.59;61.64;100781.30;1752342;81;21223;-57
2022/01/02 06:58:20;;;;;;;2.85;1.45;;;;;;;0.62;61.50;100797.25;1736388;81;21182;-57
2022/01/02 07:01:27;;;;;;;2.17;1.50;;;;;;;0.62;61.26;100799.95;1752260;82;21409;-57
2022/01/02 07:04:33;;;;;;;3.62;1.40;;;;;;;0.59;60.97;100796.11;1756098;80;21206;-57
2022/01/02 07:07:39;;;;;;;2.35;1.70;;;;;;;0.58;60.93;100806.52;1698862;83;21399;-57
2022/01/02 07:10:47;;;;;;;2.75;1.82;;;;;;;0.60;60.17;100798.34;1771103;79;21937;-56
2022/01/02 07:13:52;;;;;;;3.12;1.80;;;;;;;0.57;60.41;100806.12;1737699;81;21563;-57
2022/01/02 07:16:58;;;;;;;1.57;1.40;;;;;;;0.61;59.87;100806.31;1736612;81;21654;-57
2022/01/02 07:20:03;;;;;;;3.02;1.60;;;;;;;0.62;59.18;100802.64;1736427;82;21198;-56
2022/01/02 07:23:09;;;;;;;1.90;1.70;;;;;;;0.58;58.29;100807.86;1736607;82;21197;-57
2022/01/02 07:26:15;;;;;;;2.02;1.57;;;;;;;0.56;57.87;100821.91;1745204;81;21221;-56
2022/01/02 07:29:21;;;;;;;2.58;1.55;;;;;;;0.53;57.31;100822.12;1738114;81;21742;-56
2022/01/02 07:32:28;;;;;;;4.45;2.17;;;;;;;0.54;57.17;100837.80;1744398;82;21351;-56
2022/01/02 07:35:33;;;;;;;4.15;2.33;;;;;;;0.56;56.55;100822.38;1736161;81;21478;-56
2022/01/02 07:38:41;;;;;;;2.75;1.82;;;;;;;0.57;56.70;100823.63;1742903;79;21745;-56
2022/01/02 07:41:48;;;;;;;2.52;2.15;;;;;;;0.62;56.92;100825.53;1719671;82;21236;-56
2022/01/02 07:44:58;;;;;;;3.47;2.40;;;;;;;0.66;57.07;100828.42;1754466;80;21176;-56
2022/01/02 07:48:05;;;;;;;2.72;1.70;;;;;;;0.74;56.92;100844.94;1773520;80;21339;-56
2022/01/02 07:51:10;;;;;;;3.33;2.27;;;;;;;0.78;56.95;100862.61;1769386;79;21233;-57
2022/01/02 07:54:18;;;;;;;2.00;1.62;;;;;;;0.77;56.61;100858.20;1756272;81;21216;-56
2022/01/02 07:57:26;;;;;;;2.00;1.70;;;;;;;0.66;56.15;100840.55;1765172;80;21345;-56
2022/01/02 08:00:31;;;;;;;3.33;2.00;;;;;;;0.62;56.17;100863.25;1764616;81;21511;-56
2022/01/02 08:03:37;;;;;;;2.40;1.55;;;;;;;0.61;56.45;100848.53;1774401;79;21314;-57
2022/01/02 08:06:43;;;;;;;3.77;1.90;;;;;;;0.61;56.45;100864.69;1776775;80;21757;-57
2022/01/02 08:09:54;;;;;;;3.15;2.10;;;;;;;0.62;56.77;100847.08;1767971;80;21231;-56
2022/01/02 08:13:02;;;;;;;4.28;2.17;;;;;;;0.66;56.98;100859.40;1767745;81;21208;-56
2022/01/02 08:16:11;;;;;;;3.10;2.10;;;;;;;0.61;56.56;100877.69;1766210;81;21244;-57
2022/01/02 08:19:16;;;;;;;2.33;1.60;;;;;;;0.64;57.05;100886.91;1767422;81;21172;-56
2022/01/02 08:22:22;;;;;;;2.35;1.57;;;;;;;0.70;56.21;100899.97;1767328;81;21334;-56
2022/01/02 08:25:28;;;;;;;2.50;1.70;;;;;;;0.63;55.83;100889.70;1767084;81;21243;-56
2022/01/02 08:28:35;;;;;;;2.20;1.80;;;;;;;0.62;55.29;100902.30;1726055;79;21376;-56
2022/01/02 08:31:42;;;;;;;4.05;1.82;;;;;;;0.63;54.63;100900.48;1715438;83;21377;-56
2022/01/02 08:34:49;;;;;;;2.10;1.50;;;;;;;0.62;53.89;100905.50;1726523;82;21315;-56
2022/01/02 08:37:57;;;;;;;2.62;1.95;;;;;;;0.62;53.61;100900.11;1735871;81;21177;-56
2022/01/02 08:41:03;;;;;;;4.40;2.10;;;;;;;0.60;53.38;100906.95;1773967;81;21283;-56
2022/01/02 08:44:09;;;;;;;2.95;1.92;;;;;;;0.61;53.76;100923.48;1740943;81;21193;-56
2022/01/02 08:47:17;;;;;;;2.58;1.67;;;;;;;0.66;53.58;100915.97;1774109;81;21228;-56
2022/01/02 08:50:25;;;;;;;2.60;1.92;;;;;;;0.68;53.52;100919.41;1750098;81;21263;-56
2022/01/02 08:53:32;;;;;;;2.67;2.15;;;;;;;0.60;53.72;100929.84;1777309;80;21252;-57
2022/01/02 08:56:38;;;;;;;2.60;1.85;;;;;;;0.59;54.25;100926.75;1777174;80;21398;-57
2022/01/02 08:59:43;;;;;;;2.55;2.05;;;;;;;0.56;54.17;100936.38;1777126;80;21319;-57
2022/01/02 09:02:50;;;;;;;4.30;1.95;;;;;;;0.52;54.23;100952.37;1773107;80;21263;-57
2022/01/02 09:05:56;;;;;;;3.08;2.02;;;;;;;0.58;54.02;100941.66;1761562;80;21297;-56
2022/01/02 09:09:04;;;;;;;4.47;2.50;;;;;;;0.58;54.00;100946.58;1777938;79;21853;-57
2022/01/02 09:12:14;;;;;;;2.35;1.92;;;;;;;0.53;54.23;100951.39;1778002;80;21379;-57
2022/01/02 09:15:21;;;;;;;3.98;2.05;;;;;;;0.52;54.40;100948.33;1778016;80;21456;-58
2022/01/02 09:18:29;;;;;;;2.80;1.95;;;;;;;0.58;54.26;100949.27;1777838;80;21189;-56
2022/01/02 09:21:36;;;;;;;3.27;2.08;;;;;;;0.58;54.25;100945.23;1769741;81;21268;-56
2022/01/02 09:24:41;;;;;;;2.75;1.90;;;;;;;0.59;54.79;100939.34;1769758;81;21758;-58
2022/01/02 09:27:49;;;;;;;2.62;1.95;;;;;;;0.64;54.89;100930.01;1777653;80;21339;-57
2022/01/02 09:30:55;;;;;;;3.87;1.82;;;;;;;0.57;54.66;100947.52;1779835;80;21762;-58
2022/01/02 09:34:02;;;;;;;2.60;1.90;;;;;;;0.53;54.29;100939.74;1804263;79;21307;-57
2022/01/02 09:37:07;;;;;;;2.52;1.95;;;;;;;0.45;54.50;100952.36;1792752;79;21179;-57
2022/01/02 09:40:15;;;;;;;2.67;1.87;;;;;;;0.45;54.34;100960.44;1778339;79;21274;-57
2022/01/02 09:43:23;;;;;;;2.30;1.80;;;;;;;0.42;54.18;100965.16;1789276;80;21341;-58
2022/01/02 09:46:31;;;;;;;2.75;1.90;;;;;;;0.41;54.57;100964.31;1771263;79;21416;-57
2022/01/02 09:49:39;;;;;;;3.70;2.08;;;;;;;0.44;54.26;100965.92;1788875;80;21384;-57
2022/01/02 09:52:47;;;;;;;3.45;2.20;;;;;;;0.36;53.90;100977.19;1788633;80;21709;-56
2022/01/02 09:55:54;;;;;;;4.50;2.65;;;;;;;0.32;54.75;100968.91;1770988;80;21415;-57
2022/01/02 09:59:02;;;;;;;3.42;2.08;;;;;;;0.36;55.16;100962.39;1788887;80;21175;-57
2022/01/02 10:02:09;;;;;;;2.55;1.95;;;;;;;0.36;55.32;100971.81;1788902;80;21251;-57
2022/01/02 10:05:18;;;;;;;2.67;1.98;;;;;;;0.36;55.44;100978.54;1788873;80;21695;-57
2022/01/02 10:08:33;;;;;;;3.30;2.05;;;;;;;0.30;55.47;100976.71;1789197;80;21183;-56
2022/01/02 10:11:42;;;;;;;3.20;1.92;;;;;;;0.35;55.71;100978.13;1789219;80;21953;-57
2022/01/02 10:14:48;;;;;;;2.50;1.98;;;;;;;0.32;55.53;100994.48;1789054;77;21203;-58
2022/01/02 10:18:13;;;;;;;5.33;3.58;;;;;;;0.26;55.61;100983.23;1789394;80;21349;-57
2022/01/02 10:21:38;;;;;;;2.83;1.92;;;;;;;0.27;55.67;100988.52;1789313;80;21294;-58
2022/01/02 10:24:47;;;;;;;4.50;3.00;;;;;;;0.29;55.26;100993.80;1789444;78;21799;-57
2022/01/02 10:27:52;;;;;;;4.12;3.37;;;;;;;0.34;55.27;100991.22;1788959;80;21192;-57
2022/01/02 10:30:58;;;;;;;4.25;2.95;;;;;;;0.42;55.53;100985.34;1803668;78;21240;-58
2022/01/02 10:34:06;;;;;;;3.10;2.15;;;;;;;0.38;55.09;100979.78;1799057;78;21236;-58
2022/01/02 10:37:13;;;;;;;6.10;2.10;;;;;;;0.36;54.99;100995.16;1768637;81;21354;-58
2022/01/02 10:40:42;;;;;;;2.65;1.95;;;;;;;0.43;55.10;100988.45;1768015;79;21362;-58
2022/01/02 10:43:49;;;;;;;2.42;1.87;;;;;;;0.49;55.06;101003.70;1768797;80;21322;-58
2022/01/02 10:47:21;;;;;;;4.30;2.10;;;;;;;0.54;55.20;101008.33;1768432;81;21418;-58
2022/01/02 10:50:27;;;;;;;3.37;2.33;;;;;;;0.72;55.08;101012.55;1742848;81;21343;-58
2022/01/02 10:53:35;;;;;;;3.98;2.25;;;;;;;0.76;54.55;101013.22;1766644;80;21363;-58
2022/01/02 10:56:44;;;;;;;4.20;2.70;;;;;;;0.82;54.24;101010.13;1762980;80;21272;-57
2022/01/02 10:59:51;;;;;;;2.47;1.77;;;;;;;0.89;54.01;101010.97;1751585;80;21197;-57
2022/01/02 11:02:56;;;;;;;3.60;2.30;;;;;;;0.84;53.77;101015.78;1767535;79;21189;-58
2022/01/02 11:06:15;;;;;;;4.40;3.00;;;;;;;0.75;53.81;101001.57;1737458;81;21356;-57
2022/01/02 11:09:22;;;;;;;4.25;2.50;;;;;;;0.62;54.13;101020.82;1726379;82;21194;-57
2022/01/02 11:12:28;;;;;;;3.55;2.75;;;;;;;0.54;54.24;101023.64;1699437;83;21213;-58
2022/01/02 11:15:35;;;;;;;2.87;2.00;;;;;;;0.52;54.18;101024.20;1734434;81;21426;-58
2022/01/02 11:18:41;;;;;;;6.33;3.72;;;;;;;0.42;53.98;101017.66;1799211;79;21749;-58
2022/01/02 11:21:48;;;;;;;2.83;2.47;;;;;;;0.36;54.38;101027.48;1763889;80;21998;-58
2022/01/02 11:25:28;;;;;;;4.65;2.95;;;;;;;0.31;54.01;101026.89;1767754;80;21225;-58
2022/01/02 11:28:48;;;;;;;5.03;2.98;;;;;;;0.24;54.06;101022.36;1767800;80;21142;-58
2022/01/02 11:31:54;;;;;;;8.13;3.80;;;;;;;0.22;54.20;101018.92;1767664;79;21276;-58
2022/01/02 11:34:59;;;;;;;7.12;3.75;;;;;;;0.23;54.29;101019.30;1769893;80;21228;-57
2022/01/02 11:38:04;;;;;;;6.37;3.62;;;;;;;0.31;54.41;101033.63;1744825;82;21188;-58
2022/01/02 11:41:16;;;;;;;12.10;6.53;;;;;;;0.42;54.17;101014.97;1805088;79;21723;-57
2022/01/02 11:44:30;;;;;;;5.83;3.30;;;;;;;0.49;54.15;101024.41;1804792;79;21319;-57
2022/01/02 11:47:55;;;;;;;5.28;2.83;;;;;;;0.55;54.13;101027.58;1804735;79;21827;-57
2022/01/02 11:51:01;;;;;;;4.87;2.98;;;;;;;0.62;53.95;101021.33;1799209;79;21705;-58
2022/01/02 11:54:06;;;;;;;4.08;2.72;;;;;;;0.57;53.31;101039.09;1769754;81;21706;-57
2022/01/02 11:57:22;;;;;;;4.95;3.20;;;;;;;0.43;53.27;101044.99;1754790;80;21785;-56
2022/01/02 12:00:46;;;;;;;7.83;3.35;;;;;;;0.41;53.78;101042.40;1729682;83;21468;-56
2022/01/02 12:03:56;;;;;;;3.47;2.30;;;;;;;0.51;53.90;101051.61;1744797;81;21206;-58
2022/01/02 12:07:03;;;;;;;4.97;2.98;;;;;;;0.57;53.78;101053.91;1813034;78;21192;-59
2022/01/02 12:10:31;;;;;;;4.45;3.08;;;;;;;0.66;54.09;101056.05;1797967;77;21187;-57
2022/01/02 12:13:43;;;;;;;4.80;2.85;;;;;;;0.80;54.00;101071.33;1793296;80;21206;-57
2022/01/02 12:16:52;;;;;;;3.17;2.63;;;;;;;0.76;53.95;101065.26;1800076;79;21300;-58
2022/01/02 12:20:11;;;;;;;2.85;2.30;;;;;;;0.73;53.92;101080.78;1804096;79;22034;-58
2022/01/02 12:23:16;;;;;;;3.55;2.10;;;;;;;0.63;53.60;101087.23;1804259;79;21339;-58
2022/01/02 12:26:23;;;;;;;2.65;1.82;;;;;;;0.54;53.84;101088.28;1803606;79;21333;-57
2022/01/02 12:29:30;;;;;;;3.87;2.45;;;;;;;0.58;53.81;101090.68;1803359;79;21227;-58
2022/01/02 12:32:35;;;;;;;6.92;3.83;;;;;;;0.52;53.71;101092.42;1739587;79;21190;-58
2022/01/02 12:35:47;;;;;;;6.00;2.98;;;;;;;0.37;53.55;101077.66;1766562;80;21335;-58
2022/01/02 12:39:05;;;;;;;6.70;3.22;;;;;;;0.22;53.79;101079.49;1746056;80;21882;-57
2022/01/02 12:42:19;;;;;;;5.35;2.90;;;;;;;0.07;54.02;101095.21;1738058;81;21225;-58
2022/01/02 12:45:25;;;;;;;7.95;3.75;;;;;;;0.00;54.06;101096.05;1737271;82;21221;-58
2022/01/02 12:48:45;;;;;;;4.62;2.80;;;;;;;0.04;54.48;101100.78;1766116;80;21319;-56
2022/01/02 12:51:56;;;;;;;4.80;3.00;;;;;;;0.23;54.83;101106.79;1766859;80;21924;-56
2022/01/02 12:55:01;;;;;;;4.25;2.42;;;;;;;0.52;54.84;101099.16;1765651;80;21691;-56
2022/01/02 12:58:14;;;;;;;6.35;3.33;;;;;;;0.63;54.26;101091.27;1766611;80;21322;-56
2022/01/02 13:01:21;;;;;;;5.45;2.83;;;;;;;0.63;54.39;101099.34;1766772;80;21434;-56
2022/01/02 13:04:29;;;;;;;5.17;2.58;;;;;;;0.59;53.87;101088.83;1736473;82;21825;-57
2022/01/02 13:07:38;;;;;;;4.15;2.58;;;;;;;0.50;53.79;101086.72;1737701;81;21837;-57
2022/01/02 13:10:44;;;;;;;6.25;3.85;;;;;;;0.49;54.03;101097.96;1738449;81;21252;-57
2022/01/02 13:13:49;;;;;;;6.15;3.87;;;;;;;0.47;54.10;101094.52;1737515;82;21916;-58
2022/01/02 13:16:57;;;;;;;9.15;4.35;;;;;;;0.38;54.09;101092.38;1736769;81;21374;-57
2022/01/02 13:20:16;;;;;;;6.92;4.90;;;;;;;0.34;54.20;101094.01;1737518;82;21244;-57
2022/01/02 13:23:22;;;;;;;11.93;5.40;;;;;;;0.28;54.40;101092.58;1737995;81;21339;-57
2022/01/02 13:26:28;;;;;;;5.42;3.40;;;;;;;0.24;54.76;101088.83;1751111;81;21331;-57
2022/01/02 13:29:35;;;;;;;8.08;4.10;;;;;;;0.21;54.86;101099.28;1738769;81;21698;-57
2022/01/02 13:32:47;;;;;;;9.15;4.50;;;;;;;0.14;55.12;101086.29;1738654;80;21256;-56
2022/01/02 13:35:52;;;;;;;8.45;4.15;;;;;;;0.12;55.31;101098.50;1739068;81;21941;-57
2022/01/02 13:39:02;;;;;;;10.45;3.90;;;;;;;0.03;55.35;101108.48;1722181;81;21222;-56
2022/01/02 13:42:07;;;;;;;9.08;3.58;;;;;;;-0.06;55.46;101099.59;1736830;82;21382;-58
2022/01/02 13:45:20;;;;;;;6.80;3.72;;;;;;;-0.14;55.76;101101.87;1736834;81;21373;-57
2022/01/02 13:48:36;;;;;;;11.10;4.42;;;;;;;-0.20;55.95;101099.55;1727247;81;21196;-58
2022/01/02 13:51:41;;;;;;;8.55;4.97;;;;;;;-0.26;56.01;101105.30;1737044;82;21371;-57
2022/01/02 13:54:48;;;;;;;9.85;5.75;;;;;;;-0.34;56.35;101096.80;1727369;82;21737;-58
2022/01/02 13:57:54;;;;;;;13.05;7.40;;;;;;;-0.38;56.50;101104.68;1736422;82;21241;-58
2022/01/02 14:01:04;;;;;;;13.45;7.58;;;;;;;-0.45;56.76;101106.86;1738208;81;21888;-58
2022/01/02 14:04:13;;;;;;;15.13;9.25;;;;;;;-0.53;57.00;101109.59;1736529;82;22071;-58
2022/01/02 14:07:19;;;;;;;28.45;13.35;;;;;;;-0.59;57.33;101112.16;1737129;82;21821;-57
2022/01/02 14:10:25;;;;;;;25.32;12.98;;;;;;;-0.59;57.54;101108.59;1729305;81;21730;-57
2022/01/02 14:13:33;;;;;;;29.12;14.00;;;;;;;-0.60;57.78;101112.22;1738135;82;21347;-57
2022/01/02 14:17:14;;;;;;;53.58;23.57;;;;;;;-0.61;57.99;101106.47;1727886;82;21213;-57
2022/01/02 14:20:11;;;;;;;71.92;36.33;;;;;;;-0.66;58.12;101105.39;1737536;82;21201;-58
2022/01/02 14:23:17;;;;;;;71.97;38.80;;;;;;;-0.74;58.28;101104.95;1737369;82;21632;-58
2022/01/02 14:26:27;;;;;;;97.25;52.78;;;;;;;-0.77;58.60;101115.01;1737458;82;21698;-56
2022/01/02 14:29:35;;;;;;;96.60;50.83;;;;;;;-0.78;58.90;101108.79;1738837;81;21343;-58
2022/01/02 14:32:40;;;;;;;72.42;39.13;;;;;;;-0.76;59.11;101112.73;1737840;82;21719;-57
2022/01/02 14:35:47;;;;;;;41.70;21.17;;;;;;;-0.75;59.10;101107.73;1730723;82;21694;-57
2022/01/02 14:38:55;;;;;;;36.77;19.15;;;;;;;-0.81;59.03;101103.56;1740471;82;21256;-58
2022/01/02 14:42:02;;;;;;;79.40;35.92;;;;;;;-0.87;59.06;101114.66;1743684;81;21859;-59
2022/01/02 14:45:12;;;;;;;70.40;35.35;;;;;;;-0.92;59.27;101116.73;1747629;81;21422;-58
2022/01/02 14:48:22;;;;;;;32.95;18.92;;;;;;;-0.91;59.43;101107.73;1747748;81;21410;-57
2022/01/02 14:51:26;;;;;;;28.87;19.00;;;;;;;-0.90;59.58;101100.52;1747507;82;21212;-57